Time;durP1;ratioP1;P1;durP2;ratioP2;P2;SDS_P1;SDS_P2;PMS_P1;PMS_P2;Temp;Humidity;BMP_temperature;BMP_pressure;BME280_temperature;BME280_humidity;BME280_pressure;Samples;Min_cycle;Max_cycle;Signal;HPM_P1;HPM_P2
2021/08/15 00:01:08;;;;;;;9.95;4.53;;;;;;;;;;5039579;28;20032;-63
2021/08/15 00:03:33;;;;;;;10.32;4.70;;;;;;;;;;5026731;28;20434;-62
2021/08/15 00:05:59;;;;;;;11.98;5.30;;;;;;;;;;5031191;28;20025;-63
2021/08/15 00:08:24;;;;;;;10.90;4.88;;;;;;;;;;5027403;28;20104;-62
2021/08/15 00:10:49;;;;;;;9.60;5.10;;;;;;;;;;5029312;28;20391;-62
2021/08/15 00:13:15;;;;;;;7.68;4.50;;;;;;;;;;5028614;28;20124;-62
2021/08/15 00:15:40;;;;;;;12.43;5.00;;;;;;;;;;5009645;28;20025;-63
2021/08/15 00:18:06;;;;;;;9.93;4.93;;;;;;;;;;5027282;28;20072;-62
2021/08/15 00:20:31;;;;;;;10.35;5.10;;;;;;;;;;5015991;28;20538;-62
2021/08/15 00:22:57;;;;;;;16.23;5.10;;;;;;;;;;5047890;28;20387;-63
2021/08/15 00:25:22;;;;;;;11.70;5.25;;;;;;;;;;5045171;28;20032;-62
2021/08/15 00:27:48;;;;;;;10.50;5.00;;;;;;;;;;5047349;28;20029;-63
2021/08/15 00:30:15;;;;;;;11.75;4.90;;;;;;;;;;5029426;28;20031;-62
2021/08/15 00:32:41;;;;;;;9.95;4.88;;;;;;;;;;5047487;28;20017;-63
2021/08/15 00:35:07;;;;;;;10.38;4.47;;;;;;;;;;5020448;28;20041;-62
2021/08/15 00:37:32;;;;;;;12.73;4.97;;;;;;;;;;5028669;28;20029;-62
2021/08/15 00:39:58;;;;;;;8.00;4.70;;;;;;;;;;5026308;28;20030;-62
2021/08/15 00:42:24;;;;;;;13.40;4.63;;;;;;;;;;5027533;28;20113;-62
2021/08/15 00:44:49;;;;;;;9.45;4.90;;;;;;;;;;5027835;28;20434;-62
2021/08/15 00:47:15;;;;;;;11.25;4.60;;;;;;;;;;5022171;28;20056;-63
2021/08/15 00:49:41;;;;;;;11.18;5.10;;;;;;;;;;5008291;28;20030;-62
2021/08/15 00:52:06;;;;;;;11.13;4.75;;;;;;;;;;5025901;28;20100;-63
2021/08/15 00:54:34;;;;;;;9.02;4.03;;;;;;;;;;5027847;28;20115;-63
2021/08/15 00:57:00;;;;;;;;;;;;;;;;;;5010589;28;20025;-63
2021/08/15 00:59:26;;;;;;;9.00;4.25;;;;;;;;;;5028061;28;19971;-62
2021/08/15 01:01:53;;;;;;;10.48;4.47;;;;;;;;;;5027652;28;20069;-62
2021/08/15 01:04:22;;;;;;;;;;;;;;;;;;5025104;28;20032;-62
2021/08/15 01:06:48;;;;;;;9.55;4.45;;;;;;;;;;4990275;28;19920;-63
2021/08/15 01:09:14;;;;;;;13.73;4.68;;;;;;;;;;5007424;28;20105;-62
2021/08/15 01:11:40;;;;;;;10.27;4.47;;;;;;;;;;5006313;28;20172;-63
2021/08/15 01:14:07;;;;;;;9.82;4.55;;;;;;;;;;5007002;28;20510;-63
2021/08/15 01:16:34;;;;;;;15.30;5.32;;;;;;;;;;5007238;28;20040;-63
2021/08/15 01:19:00;;;;;;;14.00;4.80;;;;;;;;;;5007717;28;20112;-62
2021/08/15 01:21:25;;;;;;;9.48;4.65;;;;;;;;;;5021084;28;20071;-62
2021/08/15 01:23:51;;;;;;;12.95;4.55;;;;;;;;;;5027531;28;20379;-62
2021/08/15 01:26:18;;;;;;;9.77;4.28;;;;;;;;;;5009486;28;20028;-62
2021/08/15 01:28:44;;;;;;;12.25;5.00;;;;;;;;;;5022892;28;20130;-62
2021/08/15 01:31:13;;;;;;;12.88;4.50;;;;;;;;;;5024419;28;20025;-63
2021/08/15 01:33:39;;;;;;;9.98;4.70;;;;;;;;;;5004230;28;20052;-63
2021/08/15 01:36:06;;;;;;;9.03;4.23;;;;;;;;;;4996615;28;20113;-62
2021/08/15 01:38:37;;;;;;;12.02;4.00;;;;;;;;;;5007299;28;20029;-61
2021/08/15 01:41:03;;;;;;;10.80;4.28;;;;;;;;;;5004508;28;20030;-62
2021/08/15 01:43:30;;;;;;;13.52;4.70;;;;;;;;;;5000169;28;20811;-62
2021/08/15 01:45:56;;;;;;;8.93;4.63;;;;;;;;;;5017656;28;20030;-63
2021/08/15 01:48:21;;;;;;;9.45;4.45;;;;;;;;;;5022657;28;20454;-62
2021/08/15 01:50:48;;;;;;;13.00;4.82;;;;;;;;;;5027203;28;20021;-62
2021/08/15 01:53:17;;;;;;;11.23;4.80;;;;;;;;;;5026373;28;20106;-62
2021/08/15 01:55:43;;;;;;;8.23;4.20;;;;;;;;;;5028712;28;20060;-63
2021/08/15 01:58:10;;;;;;;13.93;4.63;;;;;;;;;;5027680;28;20108;-62
2021/08/15 02:00:36;;;;;;;;;;;;;;;;;;5009181;28;20398;-62
2021/08/15 02:03:02;;;;;;;9.50;4.18;;;;;;;;;;5027875;28;19920;-62
2021/08/15 02:05:28;;;;;;;14.70;5.10;;;;;;;;;;5006571;28;20550;-63
2021/08/15 02:07:56;;;;;;;12.75;4.82;;;;;;;;;;5023219;28;20272;-62
2021/08/15 02:10:25;;;;;;;9.82;4.10;;;;;;;;;;5016277;28;20021;-62
2021/08/15 02:12:51;;;;;;;14.43;4.78;;;;;;;;;;5019934;28;20561;-62
2021/08/15 02:15:17;;;;;;;9.43;4.47;;;;;;;;;;5026292;28;20037;-62
2021/08/15 02:17:43;;;;;;;13.48;4.90;;;;;;;;;;5027784;28;20021;-62
2021/08/15 02:20:09;;;;;;;10.82;4.78;;;;;;;;;;5020678;28;20034;-63
2021/08/15 02:22:34;;;;;;;10.43;4.70;;;;;;;;;;5026629;28;20036;-63
2021/08/15 02:25:00;;;;;;;12.20;4.55;;;;;;;;;;5033571;28;20709;-62
2021/08/15 02:27:25;;;;;;;6.60;4.28;;;;;;;;;;5028204;28;20052;-62
2021/08/15 02:29:51;;;;;;;11.35;4.30;;;;;;;;;;5045144;28;20517;-63
2021/08/15 02:32:16;;;;;;;9.93;4.35;;;;;;;;;;5043450;28;20017;-63
2021/08/15 02:34:42;;;;;;;8.82;4.60;;;;;;;;;;5022892;28;20032;-62
2021/08/15 02:37:07;;;;;;;9.70;4.60;;;;;;;;;;5025715;28;20521;-62
2021/08/15 02:39:35;;;;;;;9.93;4.47;;;;;;;;;;5002488;28;20080;-63
2021/08/15 02:42:01;;;;;;;9.38;4.47;;;;;;;;;;5009752;28;20517;-62
2021/08/15 02:44:26;;;;;;;8.63;4.78;;;;;;;;;;5014344;28;20033;-62
2021/08/15 02:46:51;;;;;;;9.65;4.85;;;;;;;;;;5035081;28;20131;-62
2021/08/15 02:49:17;;;;;;;11.80;4.70;;;;;;;;;;5049559;28;20124;-63
2021/08/15 02:51:42;;;;;;;9.90;4.57;;;;;;;;;;5048182;28;20025;-62
2021/08/15 02:54:07;;;;;;;17.63;4.93;;;;;;;;;;5049858;28;20021;-63
2021/08/15 02:56:33;;;;;;;8.32;4.70;;;;;;;;;;5014930;28;20429;-63
2021/08/15 02:58:58;;;;;;;8.85;4.53;;;;;;;;;;5030252;28;20033;-64
2021/08/15 03:01:23;;;;;;;8.85;4.30;;;;;;;;;;5030209;28;20164;-61
2021/08/15 03:03:48;;;;;;;10.93;4.85;;;;;;;;;;5011772;28;20148;-62
2021/08/15 03:06:14;;;;;;;10.98;5.18;;;;;;;;;;5029293;28;20395;-61
2021/08/15 03:08:39;;;;;;;10.18;5.00;;;;;;;;;;5029351;28;20036;-62
2021/08/15 03:11:04;;;;;;;12.60;4.68;;;;;;;;;;5023402;28;20014;-63
2021/08/15 03:13:30;;;;;;;12.65;4.80;;;;;;;;;;5009607;28;20177;-62
2021/08/15 03:15:55;;;;;;;12.77;4.40;;;;;;;;;;5008879;28;20391;-63
2021/08/15 03:18:20;;;;;;;8.93;4.40;;;;;;;;;;5010467;28;20526;-61
2021/08/15 03:20:46;;;;;;;10.98;4.28;;;;;;;;;;5006832;28;20025;-62
2021/08/15 03:23:11;;;;;;;11.35;4.18;;;;;;;;;;5048472;28;20036;-62
2021/08/15 03:25:37;;;;;;;11.50;4.65;;;;;;;;;;5030093;28;20478;-63
2021/08/15 03:28:07;;;;;;;9.30;4.13;;;;;;;;;;5048055;28;20017;-62
2021/08/15 03:30:33;;;;;;;11.82;4.80;;;;;;;;;;5047992;28;20027;-62
2021/08/15 03:33:00;;;;;;;14.00;4.65;;;;;;;;;;5047425;28;20029;-62
2021/08/15 03:35:25;;;;;;;10.77;4.75;;;;;;;;;;5039653;28;20072;-62
2021/08/15 03:37:51;;;;;;;9.93;4.88;;;;;;;;;;5014298;28;20542;-62
2021/08/15 03:40:16;;;;;;;13.23;4.97;;;;;;;;;;5033125;28;20029;-61
2021/08/15 03:42:42;;;;;;;14.68;5.03;;;;;;;;;;5035105;28;20021;-62
2021/08/15 03:45:08;;;;;;;9.93;4.70;;;;;;;;;;5031196;28;20029;-62
2021/08/15 03:47:34;;;;;;;9.67;4.37;;;;;;;;;;5031330;28;20060;-62
2021/08/15 03:50:01;;;;;;;9.65;4.88;;;;;;;;;;5032302;28;20029;-62
2021/08/15 03:52:27;;;;;;;10.50;4.25;;;;;;;;;;5035060;28;20079;-62
2021/08/15 03:54:52;;;;;;;9.07;4.55;;;;;;;;;;5051641;28;20090;-61
2021/08/15 03:57:18;;;;;;;11.55;4.80;;;;;;;;;;5052397;28;20029;-62
2021/08/15 03:59:44;;;;;;;11.43;4.72;;;;;;;;;;5051096;28;20035;-62
2021/08/15 04:02:10;;;;;;;11.68;4.95;;;;;;;;;;5052804;28;20067;-62
2021/08/15 04:04:35;;;;;;;11.88;4.70;;;;;;;;;;5047949;28;20113;-63
2021/08/15 04:07:00;;;;;;;9.27;4.75;;;;;;;;;;5039413;28;20029;-63
2021/08/15 04:09:26;;;;;;;9.20;5.00;;;;;;;;;;5052055;28;20032;-62
2021/08/15 04:11:51;;;;;;;13.30;4.80;;;;;;;;;;5051012;28;20107;-62
2021/08/15 04:14:16;;;;;;;11.55;4.93;;;;;;;;;;5051128;28;20474;-62
2021/08/15 04:16:42;;;;;;;9.60;4.50;;;;;;;;;;5052168;28;20398;-62
2021/08/15 04:19:07;;;;;;;10.25;4.88;;;;;;;;;;5051649;28;20048;-62
2021/08/15 04:21:33;;;;;;;9.63;4.43;;;;;;;;;;5051514;28;20174;-62
2021/08/15 04:23:58;;;;;;;8.68;4.78;;;;;;;;;;5052312;28;20057;-63
2021/08/15 04:26:24;;;;;;;17.52;5.13;;;;;;;;;;5051140;28;20028;-62
2021/08/15 04:28:49;;;;;;;11.32;4.75;;;;;;;;;;5050450;28;20025;-62
2021/08/15 04:31:15;;;;;;;10.82;4.68;;;;;;;;;;5050269;28;20379;-62
2021/08/15 04:33:40;;;;;;;10.40;4.30;;;;;;;;;;5048483;28;20074;-62
2021/08/15 04:36:08;;;;;;;11.45;4.70;;;;;;;;;;5015854;28;20382;-62
2021/08/15 04:38:33;;;;;;;10.55;4.40;;;;;;;;;;5013054;28;20168;-62
2021/08/15 04:40:59;;;;;;;9.93;4.63;;;;;;;;;;5031089;28;20116;-64
2021/08/15 04:43:24;;;;;;;11.68;5.22;;;;;;;;;;5031652;28;20120;-63
2021/08/15 04:45:49;;;;;;;9.85;4.78;;;;;;;;;;5031126;28;20360;-64
2021/08/15 04:48:15;;;;;;;10.40;4.82;;;;;;;;;;5015867;28;20388;-63
2021/08/15 04:50:41;;;;;;;10.05;4.50;;;;;;;;;;5018337;28;20435;-64
2021/08/15 04:53:06;;;;;;;11.80;4.53;;;;;;;;;;5031861;28;20119;-62
2021/08/15 04:55:32;;;;;;;11.18;4.45;;;;;;;;;;5013140;28;20116;-62
2021/08/15 04:57:58;;;;;;;12.15;4.85;;;;;;;;;;5031941;28;20104;-63
2021/08/15 05:00:24;;;;;;;12.23;4.63;;;;;;;;;;5029936;28;20106;-63
2021/08/15 05:02:49;;;;;;;8.40;4.55;;;;;;;;;;5031920;28;20061;-62
2021/08/15 05:05:15;;;;;;;6.47;4.07;;;;;;;;;;5003621;28;20026;-62
2021/08/15 05:07:40;;;;;;;11.65;4.43;;;;;;;;;;5011410;28;20108;-62
2021/08/15 05:10:06;;;;;;;9.00;4.22;;;;;;;;;;4994041;28;20427;-62
2021/08/15 05:12:32;;;;;;;9.60;4.20;;;;;;;;;;5011135;28;20018;-63
2021/08/15 05:14:57;;;;;;;8.68;4.50;;;;;;;;;;5010869;28;20506;-63
2021/08/15 05:17:22;;;;;;;8.20;4.18;;;;;;;;;;4992943;28;20475;-63
2021/08/15 05:19:48;;;;;;;10.63;4.38;;;;;;;;;;5010778;28;20550;-63
2021/08/15 05:22:13;;;;;;;10.45;4.55;;;;;;;;;;5030601;28;20033;-63
2021/08/15 05:24:38;;;;;;;10.55;4.45;;;;;;;;;;5012855;28;20049;-64
2021/08/15 05:27:04;;;;;;;7.10;3.90;;;;;;;;;;5031000;28;20096;-63
2021/08/15 05:29:29;;;;;;;11.00;4.05;;;;;;;;;;4328593;28;10021872;-63
2021/08/15 05:31:54;;;;;;;10.55;4.50;;;;;;;;;;4987520;28;20104;-64
2021/08/15 05:34:20;;;;;;;12.15;4.60;;;;;;;;;;5000458;28;20446;-64
2021/08/15 05:36:45;;;;;;;11.98;4.07;;;;;;;;;;4975452;28;20081;-63
2021/08/15 05:39:11;;;;;;;11.20;4.60;;;;;;;;;;5009599;28;20089;-63
2021/08/15 05:41:36;;;;;;;8.45;4.20;;;;;;;;;;5016948;28;20061;-63
2021/08/15 05:44:02;;;;;;;9.20;3.80;;;;;;;;;;4996478;28;20475;-62
2021/08/15 05:46:27;;;;;;;9.30;4.00;;;;;;;;;;5004081;28;20030;-63
2021/08/15 05:48:52;;;;;;;10.75;4.28;;;;;;;;;;5023160;28;20700;-63
2021/08/15 05:51:18;;;;;;;9.80;4.10;;;;;;;;;;5028170;28;20021;-64
2021/08/15 05:53:43;;;;;;;8.95;4.63;;;;;;;;;;5031083;28;20061;-63
2021/08/15 05:56:08;;;;;;;11.85;4.25;;;;;;;;;;5019263;28;20026;-62
2021/08/15 05:58:34;;;;;;;9.75;4.38;;;;;;;;;;5029980;28;20041;-63
2021/08/15 06:00:59;;;;;;;10.23;4.22;;;;;;;;;;5016248;28;20427;-64
2021/08/15 06:03:24;;;;;;;10.38;4.00;;;;;;;;;;5028660;28;20386;-62
2021/08/15 06:05:50;;;;;;;8.77;4.28;;;;;;;;;;5001117;28;20470;-65
2021/08/15 06:08:16;;;;;;;7.40;4.20;;;;;;;;;;5001040;28;20029;-62
2021/08/15 06:10:42;;;;;;;9.60;4.53;;;;;;;;;;5020194;28;20508;-63
2021/08/15 06:13:09;;;;;;;7.28;3.95;;;;;;;;;;5004456;28;20030;-62
2021/08/15 06:15:34;;;;;;;7.88;4.43;;;;;;;;;;5032428;28;20025;-63
2021/08/15 06:18:00;;;;;;;10.98;4.72;;;;;;;;;;5016399;28;20048;-63
2021/08/15 06:20:25;;;;;;;6.13;3.92;;;;;;;;;;5029761;28;20152;-62
2021/08/15 06:22:51;;;;;;;9.00;3.83;;;;;;;;;;5026540;28;20057;-63
2021/08/15 06:25:16;;;;;;;10.52;4.75;;;;;;;;;;5022886;28;20026;-61
2021/08/15 06:27:44;;;;;;;12.32;4.20;;;;;;;;;;4998916;28;20029;-63
2021/08/15 06:30:15;;;;;;;11.32;4.40;;;;;;;;;;5027925;28;20017;-64
2021/08/15 06:32:59;;;;;;;11.02;4.35;;;;;;;;;;5016945;28;20098;-62
2021/08/15 06:35:26;;;;;;;9.77;4.28;;;;;;;;;;5025507;28;20148;-62
2021/08/15 06:37:53;;;;;;;7.95;4.28;;;;;;;;;;5031440;28;20034;-63
2021/08/15 06:40:20;;;;;;;11.38;4.97;;;;;;;;;;5036540;28;20486;-62
2021/08/15 06:42:46;;;;;;;8.93;3.85;;;;;;;;;;5033481;28;20486;-63
2021/08/15 06:45:12;;;;;;;9.85;4.38;;;;;;;;;;5032353;28;20025;-63
2021/08/15 06:47:38;;;;;;;8.82;4.28;;;;;;;;;;5030372;28;20427;-63
2021/08/15 06:50:07;;;;;;;9.30;4.35;;;;;;;;;;5012787;28;20123;-63
2021/08/15 06:52:33;;;;;;;10.63;4.75;;;;;;;;;;4998340;28;20030;-63
2021/08/15 06:54:59;;;;;;;10.48;4.07;;;;;;;;;;4996124;28;20045;-64
2021/08/15 06:57:25;;;;;;;10.13;4.32;;;;;;;;;;4999539;28;20033;-62
2021/08/15 06:59:50;;;;;;;9.35;4.53;;;;;;;;;;5008729;28;20030;-62
2021/08/15 07:02:15;;;;;;;7.97;3.95;;;;;;;;;;5007316;28;20136;-63
2021/08/15 07:04:41;;;;;;;8.52;3.88;;;;;;;;;;5007915;28;20030;-63
2021/08/15 07:07:06;;;;;;;7.75;3.88;;;;;;;;;;4993826;28;20030;-62
2021/08/15 07:09:31;;;;;;;10.30;4.35;;;;;;;;;;4976508;28;20077;-62
2021/08/15 07:11:57;;;;;;;9.45;4.25;;;;;;;;;;4993887;28;20483;-63
2021/08/15 07:14:22;;;;;;;9.60;4.68;;;;;;;;;;4993172;28;20102;-62
2021/08/15 07:16:47;;;;;;;11.05;4.25;;;;;;;;;;4992386;28;20503;-63
2021/08/15 07:19:13;;;;;;;9.70;4.28;;;;;;;;;;4975534;28;20093;-62
2021/08/15 07:21:38;;;;;;;8.73;4.35;;;;;;;;;;5021801;28;20061;-63
2021/08/15 07:24:04;;;;;;;9.23;4.57;;;;;;;;;;5000926;28;20527;-63
2021/08/15 07:26:30;;;;;;;8.93;3.78;;;;;;;;;;4994968;28;20369;-63
2021/08/15 07:28:55;;;;;;;8.98;4.00;;;;;;;;;;5003195;28;20041;-62
2021/08/15 07:31:21;;;;;;;9.98;4.63;;;;;;;;;;4993210;28;20073;-62
2021/08/15 07:33:46;;;;;;;11.10;4.60;;;;;;;;;;4993428;28;20117;-62
2021/08/15 07:36:12;;;;;;;8.68;4.35;;;;;;;;;;5010854;28;20061;-63
2021/08/15 07:38:38;;;;;;;8.65;4.32;;;;;;;;;;5006614;28;20033;-62
2021/08/15 07:41:03;;;;;;;8.15;3.97;;;;;;;;;;5032050;28;20029;-62
2021/08/15 07:43:30;;;;;;;11.63;4.72;;;;;;;;;;5010898;28;20442;-62
2021/08/15 07:45:56;;;;;;;11.80;4.50;;;;;;;;;;4992484;28;20426;-63
2021/08/15 07:48:23;;;;;;;11.68;4.75;;;;;;;;;;5048191;28;20135;-62
2021/08/15 07:50:51;;;;;;;9.85;4.38;;;;;;;;;;5051811;28;20029;-62
2021/08/15 07:53:28;;;;;;;7.25;4.00;;;;;;;;;;5048109;28;20037;-62
2021/08/15 07:55:57;;;;;;;9.32;4.30;;;;;;;;;;5051395;28;20049;-61
2021/08/15 07:58:23;;;;;;;12.98;4.10;;;;;;;;;;5052577;28;20040;-62
2021/08/15 08:00:50;;;;;;;8.63;4.28;;;;;;;;;;5051521;28;20343;-63
2021/08/15 08:03:15;;;;;;;12.05;5.25;;;;;;;;;;5019137;28;20026;-62
2021/08/15 08:05:42;;;;;;;7.13;3.85;;;;;;;;;;5004393;28;20095;-63
2021/08/15 08:08:08;;;;;;;8.03;4.43;;;;;;;;;;5021904;28;20033;-63
2021/08/15 08:10:33;;;;;;;6.45;3.78;;;;;;;;;;5017826;28;20087;-61
2021/08/15 08:12:58;;;;;;;9.38;4.35;;;;;;;;;;5041485;28;20127;-64
2021/08/15 08:15:24;;;;;;;11.48;4.30;;;;;;;;;;5028575;28;20508;-63
2021/08/15 08:17:50;;;;;;;7.47;4.20;;;;;;;;;;5012220;28;20033;-63
2021/08/15 08:20:17;;;;;;;8.32;4.43;;;;;;;;;;5024589;28;20029;-63
2021/08/15 08:22:44;;;;;;;10.30;4.57;;;;;;;;;;5030959;28;20025;-62
2021/08/15 08:25:10;;;;;;;12.35;4.07;;;;;;;;;;4326200;28;10000883;-62
2021/08/15 08:27:36;;;;;;;8.80;4.10;;;;;;;;;;5019119;28;20103;-63
2021/08/15 08:30:01;;;;;;;9.80;4.00;;;;;;;;;;5013426;28;20792;-62
2021/08/15 08:32:27;;;;;;;7.70;4.28;;;;;;;;;;5015864;28;20037;-63
2021/08/15 08:34:52;;;;;;;7.30;3.83;;;;;;;;;;4998749;28;20429;-63
2021/08/15 08:37:18;;;;;;;8.10;4.20;;;;;;;;;;5010645;28;20057;-63
2021/08/15 08:39:46;;;;;;;8.43;4.40;;;;;;;;;;5005639;28;20117;-62
2021/08/15 08:42:12;;;;;;;5.45;3.78;;;;;;;;;;5028993;28;20056;-62
2021/08/15 08:44:37;;;;;;;9.00;3.85;;;;;;;;;;5027242;28;20025;-63
2021/08/15 08:47:09;;;;;;;10.25;4.18;;;;;;;;;;5026627;28;20046;-62
2021/08/15 08:49:37;;;;;;;7.82;4.25;;;;;;;;;;5033454;28;20488;-63
2021/08/15 08:52:03;;;;;;;7.93;3.80;;;;;;;;;;5027691;28;20039;-62
2021/08/15 08:54:30;;;;;;;7.97;4.20;;;;;;;;;;5045179;28;20032;-63
2021/08/15 08:56:55;;;;;;;9.20;4.45;;;;;;;;;;5046413;28;20091;-63
2021/08/15 08:59:21;;;;;;;7.65;3.97;;;;;;;;;;5032214;28;20045;-63
2021/08/15 09:01:47;;;;;;;6.57;3.67;;;;;;;;;;5008549;28;20490;-63
2021/08/15 09:04:13;;;;;;;7.30;4.25;;;;;;;;;;5026460;28;20044;-63
2021/08/15 09:06:39;;;;;;;9.05;3.67;;;;;;;;;;5027100;28;20041;-62
2021/08/15 09:09:16;;;;;;;8.43;3.83;;;;;;;;;;5009508;28;20540;-64
2021/08/15 09:11:45;;;;;;;7.10;4.22;;;;;;;;;;5031883;28;20021;-63
2021/08/15 09:14:14;;;;;;;7.53;3.85;;;;;;;;;;5028184;28;20121;-62
2021/08/15 09:16:59;;;;;;;7.10;4.18;;;;;;;;;;5027792;28;20068;-62
2021/08/15 09:19:37;;;;;;;7.80;3.75;;;;;;;;;;5029243;28;20137;-64
2021/08/15 09:22:23;;;;;;;10.30;3.92;;;;;;;;;;5044496;28;20029;-63
2021/08/15 09:25:10;;;;;;;7.05;3.40;;;;;;;;;;5023456;28;20371;-63
2021/08/15 09:27:48;;;;;;;7.47;3.55;;;;;;;;;;5027908;28;20025;-62
2021/08/15 09:30:25;;;;;;;11.02;3.53;;;;;;;;;;5026877;28;20060;-63
2021/08/15 09:33:02;;;;;;;5.28;3.13;;;;;;;;;;5008698;28;20100;-63
2021/08/15 09:35:32;;;;;;;9.55;3.70;;;;;;;;;;5020932;28;20104;-62
2021/08/15 09:38:30;;;;;;;7.07;3.50;;;;;;;;;;5026881;28;20497;-62
2021/08/15 09:40:55;;;;;;;6.63;3.25;;;;;;;;;;5018408;28;20073;-64
2021/08/15 09:43:28;;;;;;;6.33;3.00;;;;;;;;;;5026676;28;20061;-62
2021/08/15 09:45:55;;;;;;;5.18;2.90;;;;;;;;;;5031794;28;20021;-63
2021/08/15 09:48:26;;;;;;;6.95;2.85;;;;;;;;;;5026902;28;20120;-64
2021/08/15 09:51:17;;;;;;;5.30;2.20;;;;;;;;;;5048953;28;20032;-63
2021/08/15 09:53:45;;;;;;;5.75;2.55;;;;;;;;;;5036783;28;20037;-63
2021/08/15 09:56:11;;;;;;;3.92;2.28;;;;;;;;;;5050054;28;20035;-62
2021/08/15 09:58:37;;;;;;;5.80;2.77;;;;;;;;;;5050415;28;20029;-62
2021/08/15 10:01:07;;;;;;;3.80;2.13;;;;;;;;;;5046922;28;20032;-65
2021/08/15 10:03:37;;;;;;;4.70;2.08;;;;;;;;;;5050173;28;20271;-63
2021/08/15 10:06:03;;;;;;;5.07;2.35;;;;;;;;;;5032711;28;20021;-63
2021/08/15 10:08:30;;;;;;;5.30;2.00;;;;;;;;;;5031062;28;20475;-62
2021/08/15 10:10:56;;;;;;;4.70;2.25;;;;;;;;;;5030064;28;20030;-63
2021/08/15 10:13:21;;;;;;;5.40;2.00;;;;;;;;;;5031099;28;20084;-63
2021/08/15 10:15:57;;;;;;;5.37;2.00;;;;;;;;;;5030954;28;20391;-62
2021/08/15 10:18:26;;;;;;;4.75;2.20;;;;;;;;;;5015601;28;20025;-62
2021/08/15 10:21:00;;;;;;;3.53;2.00;;;;;;;;;;5030207;28;20426;-62
2021/08/15 10:23:34;;;;;;;3.20;2.40;;;;;;;;;;5030050;28;20478;-63
2021/08/15 10:26:00;;;;;;;4.20;2.10;;;;;;;;;;5017069;28;20124;-63
2021/08/15 10:28:28;;;;;;;4.03;1.60;;;;;;;;;;5010567;28;20152;-63
2021/08/15 10:30:56;;;;;;;2.75;1.70;;;;;;;;;;5010290;28;20119;-64
2021/08/15 10:33:24;;;;;;;3.47;1.92;;;;;;;;;;5011234;28;20602;-63
2021/08/15 10:36:22;;;;;;;3.83;1.80;;;;;;;;;;5025276;28;20033;-63
2021/08/15 10:38:49;;;;;;;3.33;1.50;;;;;;;;;;5030042;28;20022;-62
2021/08/15 10:41:51;;;;;;;2.60;1.50;;;;;;;;;;5029649;28;20096;-64
2021/08/15 10:44:18;;;;;;;2.90;1.70;;;;;;;;;;5012375;28;20033;-64
2021/08/15 10:47:08;;;;;;;2.70;1.77;;;;;;;;;;5010594;28;20031;-63
2021/08/15 10:50:07;;;;;;;5.15;1.73;;;;;;;;;;5000715;28;20032;-63
2021/08/15 10:52:41;;;;;;;6.05;1.88;;;;;;;;;;4977125;28;20038;-63
2021/08/15 10:55:09;;;;;;;3.13;1.63;;;;;;;;;;4989921;28;20472;-63
2021/08/15 10:57:49;;;;;;;3.53;1.80;;;;;;;;;;4990268;28;20034;-62
2021/08/15 11:00:30;;;;;;;4.32;2.03;;;;;;;;;;4970787;28;20034;-63
2021/08/15 11:03:00;;;;;;;3.67;1.83;;;;;;;;;;4989335;28;20041;-63
2021/08/15 11:05:39;;;;;;;4.10;1.70;;;;;;;;;;5001712;28;20022;-62
2021/08/15 11:08:33;;;;;;;4.10;1.70;;;;;;;;;;4992439;28;20052;-63
2021/08/15 11:11:07;;;;;;;4.20;1.63;;;;;;;;;;5008895;28;20064;-63
2021/08/15 11:13:33;;;;;;;3.53;1.60;;;;;;;;;;5009482;28;20057;-63
2021/08/15 11:16:18;;;;;;;;;;;;;;;;;;5010420;28;20108;-63
2021/08/15 11:19:08;;;;;;;3.35;1.90;;;;;;;;;;5010064;28;19918;-62
2021/08/15 11:22:04;;;;;;;2.55;1.73;;;;;;;;;;5023261;28;20109;-64
2021/08/15 11:24:37;;;;;;;2.80;1.52;;;;;;;;;;5027913;28;20034;-64
2021/08/15 11:27:05;;;;;;;2.78;1.60;;;;;;;;;;4988532;28;20036;-64
2021/08/15 11:29:30;;;;;;;3.45;1.63;;;;;;;;;;4990280;28;20077;-64
2021/08/15 11:31:57;;;;;;;4.70;1.48;;;;;;;;;;4989898;28;20483;-62
2021/08/15 11:34:23;;;;;;;1.98;1.27;;;;;;;;;;5003314;28;20030;-62
2021/08/15 11:37:03;;;;;;;1.92;1.20;;;;;;;;;;5009427;28;20077;-62
2021/08/15 11:39:32;;;;;;;1.70;1.15;;;;;;;;;;5008244;28;20029;-63
2021/08/15 11:42:00;;;;;;;3.85;1.38;;;;;;;;;;5007264;28;20029;-62
2021/08/15 11:44:26;;;;;;;5.95;1.42;;;;;;;;;;5008161;28;20030;-62
2021/08/15 11:46:51;;;;;;;1.57;1.10;;;;;;;;;;5009844;28;20053;-62
2021/08/15 11:49:33;;;;;;;2.63;1.20;;;;;;;;;;5008939;28;20108;-64
2021/08/15 11:52:13;;;;;;;2.83;1.10;;;;;;;;;;5009162;28;20029;-63
2021/08/15 11:54:39;;;;;;;1.90;1.10;;;;;;;;;;5011369;28;20029;-62
2021/08/15 11:57:04;;;;;;;3.35;1.02;;;;;;;;;;5008975;28;20037;-61
2021/08/15 11:59:29;;;;;;;2.00;1.33;;;;;;;;;;4999839;28;20093;-63
2021/08/15 12:01:55;;;;;;;2.77;1.20;;;;;;;;;;4983119;28;20037;-61
2021/08/15 12:04:20;;;;;;;2.70;1.40;;;;;;;;;;4983838;28;21001;-61
2021/08/15 12:06:46;;;;;;;1.67;1.20;;;;;;;;;;5008230;28;20025;-62
2021/08/15 12:09:20;;;;;;;4.50;1.07;;;;;;;;;;5018367;28;20033;-62
2021/08/15 12:11:55;;;;;;;2.20;1.17;;;;;;;;;;5019441;28;20121;-62
2021/08/15 12:14:20;;;;;;;1.92;1.20;;;;;;;;;;4992807;28;20028;-63
2021/08/15 12:16:58;;;;;;;1.97;0.87;;;;;;;;;;5009833;28;20366;-62
2021/08/15 12:19:30;;;;;;;2.17;1.23;;;;;;;;;;5028456;28;20032;-62
2021/08/15 12:22:01;;;;;;;3.13;1.30;;;;;;;;;;5028114;28;20162;-62
2021/08/15 12:24:32;;;;;;;2.03;1.20;;;;;;;;;;5027764;28;20133;-62
2021/08/15 12:27:04;;;;;;;2.85;1.20;;;;;;;;;;4989853;28;20467;-64
2021/08/15 12:29:42;;;;;;;2.40;1.20;;;;;;;;;;4990476;28;20045;-61
2021/08/15 12:32:20;;;;;;;1.10;1.00;;;;;;;;;;5001280;28;20026;-61
2021/08/15 12:35:01;;;;;;;2.22;1.00;;;;;;;;;;5104871;27;20380;-62
2021/08/15 12:37:37;;;;;;;2.58;0.90;;;;;;;;;;5104818;28;20058;-61
2021/08/15 12:40:05;;;;;;;2.47;1.50;;;;;;;;;;5104456;28;20020;-63
2021/08/15 12:42:32;;;;;;;2.45;1.10;;;;;;;;;;5102947;28;20032;-63
2021/08/15 12:45:04;;;;;;;2.63;1.00;;;;;;;;;;5103366;28;20516;-61
2021/08/15 12:47:35;;;;;;;1.20;0.90;;;;;;;;;;5103974;28;20075;-63
2021/08/15 12:50:23;;;;;;;1.88;1.05;;;;;;;;;;5102257;28;20035;-62
2021/08/15 12:52:53;;;;;;;2.28;1.20;;;;;;;;;;5105282;28;20031;-62
2021/08/15 12:55:28;;;;;;;4.63;1.20;;;;;;;;;;5104373;28;20040;-62
2021/08/15 12:57:55;;;;;;;3.30;1.40;;;;;;;;;;5102836;28;20054;-62
2021/08/15 13:00:23;;;;;;;2.30;1.30;;;;;;;;;;5099627;28;20131;-61
2021/08/15 13:02:51;;;;;;;2.45;1.08;;;;;;;;;;5103696;28;20036;-61
2021/08/15 13:05:18;;;;;;;2.65;1.17;;;;;;;;;;5102892;28;20065;-62
2021/08/15 13:07:44;;;;;;;5.75;1.15;;;;;;;;;;5105244;28;20043;-62
2021/08/15 13:10:11;;;;;;;2.97;1.20;;;;;;;;;;5104319;28;20023;-61
2021/08/15 13:12:37;;;;;;;2.40;1.13;;;;;;;;;;5104524;28;20028;-63
2021/08/15 13:15:04;;;;;;;3.50;1.30;;;;;;;;;;5101502;28;20028;-62
2021/08/15 13:17:31;;;;;;;4.15;1.33;;;;;;;;;;5103613;28;20055;-60
2021/08/15 13:19:57;;;;;;;4.20;1.10;;;;;;;;;;5104260;28;20738;-63
2021/08/15 13:22:22;;;;;;;2.93;0.90;;;;;;;;;;5103715;28;20033;-64
2021/08/15 13:24:47;;;;;;;2.77;1.00;;;;;;;;;;5100774;28;20389;-62
2021/08/15 13:27:14;;;;;;;2.07;1.00;;;;;;;;;;5083472;28;20068;-63
2021/08/15 13:29:39;;;;;;;6.82;1.08;;;;;;;;;;5083041;28;20035;-64
2021/08/15 13:32:05;;;;;;;2.73;1.03;;;;;;;;;;5082596;28;20040;-62
2021/08/15 13:34:30;;;;;;;2.90;0.97;;;;;;;;;;5083634;28;20094;-62
2021/08/15 13:36:56;;;;;;;2.27;1.10;;;;;;;;;;5082832;28;20020;-61
2021/08/15 13:39:21;;;;;;;1.80;0.90;;;;;;;;;;5083672;28;20028;-63
2021/08/15 13:41:46;;;;;;;2.17;0.83;;;;;;;;;;5084494;28;20027;-62
2021/08/15 13:44:12;;;;;;;2.97;1.00;;;;;;;;;;5080941;28;20022;-62
2021/08/15 13:46:38;;;;;;;1.93;1.10;;;;;;;;;;5069788;28;20028;-61
2021/08/15 13:49:04;;;;;;;3.08;1.60;;;;;;;;;;5071309;28;20036;-63
2021/08/15 13:51:29;;;;;;;2.90;1.10;;;;;;;;;;5083517;28;20108;-63
2021/08/15 13:53:55;;;;;;;3.37;1.10;;;;;;;;;;5087190;28;20047;-62
2021/08/15 13:56:20;;;;;;;4.00;1.00;;;;;;;;;;5090251;28;20080;-63
2021/08/15 13:58:46;;;;;;;1.70;1.03;;;;;;;;;;5089103;28;20440;-62
2021/08/15 14:01:12;;;;;;;1.97;1.00;;;;;;;;;;5087981;28;20023;-63
2021/08/15 14:03:38;;;;;;;2.60;1.10;;;;;;;;;;5090130;28;20033;-62
2021/08/15 14:06:03;;;;;;;2.33;1.10;;;;;;;;;;5087093;28;20359;-63
2021/08/15 14:08:28;;;;;;;1.43;0.90;;;;;;;;;;5080515;28;20013;-62
2021/08/15 14:10:54;;;;;;;2.53;1.00;;;;;;;;;;5071611;28;20817;-62
2021/08/15 14:13:20;;;;;;;1.67;0.80;;;;;;;;;;5069452;28;20512;-62
2021/08/15 14:15:46;;;;;;;1.85;1.20;;;;;;;;;;5067962;28;20746;-63
2021/08/15 14:18:11;;;;;;;1.80;0.90;;;;;;;;;;5068073;28;20028;-62
2021/08/15 14:20:36;;;;;;;1.33;0.97;;;;;;;;;;5074459;28;20022;-64
2021/08/15 14:23:03;;;;;;;1.97;0.90;;;;;;;;;;5090025;28;20563;-64
2021/08/15 14:25:29;;;;;;;;;;;;;;;;;;5081671;28;20115;-62
2021/08/15 14:27:54;;;;;;;1.63;1.10;;;;;;;;;;5069142;28;19917;-62
2021/08/15 14:30:19;;;;;;;2.50;1.73;;;;;;;;;;5066911;28;20718;-61
2021/08/15 14:32:46;;;;;;;1.87;1.00;;;;;;;;;;5066844;28;20760;-62
2021/08/15 14:35:13;;;;;;;3.10;1.30;;;;;;;;;;5077532;28;20020;-62
2021/08/15 14:37:38;;;;;;;;;;;;;;;;;;5089876;28;20028;-62
2021/08/15 14:40:05;;;;;;;2.30;1.65;;;;;;;;;;5089258;28;20254;-63
2021/08/15 14:42:30;;;;;;;;;;;;;;;;;;5090210;28;20031;-61
2021/08/15 14:44:55;;;;;;;1.77;1.10;;;;;;;;;;5088629;28;20373;-61